Time;durP1;ratioP1;P1;durP2;ratioP2;P2;SDS_P1;SDS_P2;PMS_P1;PMS_P2;Temp;Humidity;BMP_temperature;BMP_pressure;BME280_temperature;BME280_humidity;BME280_pressure;Samples;Min_cycle;Max_cycle;Signal;HPM_P1;HPM_P2
2022/01/25 00:10:01;;;;;;;;;;;;;;;;;;4985488;28;19968;-72
2022/01/25 00:15:16;;;;;;;;;;;;;;;;;;4986133;28;19933;-73
2022/01/25 00:26:04;;;;;;;;;;;;;;;;;;4991158;28;20420;-73
2022/01/25 00:28:43;;;;;;;;;;;;;;;;;;4987489;28;19933;-72
2022/01/25 00:31:13;;;;;;;;;;;;;;;;;;4987369;28;19930;-73
2022/01/25 00:33:40;;;;;;;;;;;;;;;;;;4987318;28;19990;-71
2022/01/25 00:36:07;;;;;;;;;;;;;;;;;;4987753;28;19926;-73
2022/01/25 00:38:34;;;;;;;;;;;;;;;;;;4987844;28;20313;-73
2022/01/25 00:41:01;;;;;;;;;;;;;;;;;;4989735;28;19933;-73
2022/01/25 00:43:28;;;;;;;;;;;;;;;;;;4983318;28;20017;-72
2022/01/25 00:45:58;;;;;;;;;;;;;;;;;;4980797;28;19926;-72
2022/01/25 00:48:40;;;;;;;;;;;;;;;;;;4984291;28;20031;-73
2022/01/25 00:51:19;;;;;;;;;;;;;;;;;;4989595;28;20025;-71
2022/01/25 00:53:58;;;;;;;;;;;;;;;;;;4990982;28;19930;-71
2022/01/25 00:56:25;;;;;;;;;;;;;;;;;;4988212;28;19996;-71
2022/01/25 00:58:52;;;;;;;;;;;;;;;;;;4986725;28;19926;-73
2022/01/25 01:01:19;;;;;;;;;;;;;;;;;;4980929;28;20384;-72
2022/01/25 01:03:46;;;;;;;;;;;;;;;;;;4980488;28;19934;-71
2022/01/25 01:06:14;;;;;;;;;;;;;;;;;;4976648;28;20024;-72
2022/01/25 01:08:41;;;;;;;;;;;;;;;;;;4979896;28;19930;-72
2022/01/25 01:11:12;;;;;;;;;;;;;;;;;;4988283;28;20412;-74
2022/01/25 01:13:54;;;;;;;;;;;;;;;;;;4986152;28;19926;-72
2022/01/25 01:16:57;;;;;;;;;;;;;;;;;;4982048;28;19932;-72
2022/01/25 01:44:09;;;;;;;;;;;;;;;;;;4985569;28;19944;-72
2022/01/25 01:46:41;;;;;;;;;;;;;;;;;;4983376;28;19929;-73
2022/01/25 01:49:10;;;;;;;;;;;;;;;;;;4986696;28;20312;-73
2022/01/25 01:51:42;;;;;;;;;;;;;;;;;;4983653;28;19926;-73
2022/01/25 01:54:09;;;;;;;;;;;;;;;;;;4982848;28;19936;-73
2022/01/25 01:56:36;;;;;;;;;;;;;;;;;;4981794;28;19934;-73
2022/01/25 01:59:03;;;;;;;;;;;;;;;;;;4982491;28;19926;-74
2022/01/25 02:01:30;;;;;;;;;;;;;;;;;;4984863;28;19933;-72
2022/01/25 02:03:57;;;;;;;;;;;;;;;;;;4987105;28;20303;-73
2022/01/25 02:06:24;;;;;;;;;;;;;;;;;;4983632;28;20028;-73
2022/01/25 02:08:51;;;;;;;;;;;;;;;;;;4984289;28;19934;-73
2022/01/25 02:11:18;;;;;;;;;;;;;;;;;;4989820;28;19936;-73
2022/01/25 02:13:45;;;;;;;;;;;;;;;;;;4984391;28;20104;-73
2022/01/25 02:16:29;;;;;;;;;;;;;;;;;;4984434;28;20448;-73
2022/01/25 02:24:25;;;;;;;;;;;;;;;;;;4986486;28;19968;-73
2022/01/25 02:26:55;;;;;;;;;;;;;;;;;;4983517;28;20361;-73
2022/01/25 02:29:22;;;;;;;;;;;;;;;;;;4986286;28;20008;-72
2022/01/25 02:31:49;;;;;;;;;;;;;;;;;;4982176;28;19926;-72
2022/01/25 02:34:16;;;;;;;;;;;;;;;;;;4988362;28;19926;-73
2022/01/25 02:36:43;;;;;;;;;;;;;;;;;;4984983;28;19925;-72
2022/01/25 02:39:10;;;;;;;;;;;;;;;;;;4985198;28;19930;-72
2022/01/25 02:41:37;;;;;;;;;;;;;;;;;;4989064;28;19926;-72
2022/01/25 02:44:05;;;;;;;;;;;;;;;;;;4987853;28;19926;-72
2022/01/25 02:49:17;;;;;;;;;;;;;;;;;;4982431;28;20024;-72
2022/01/25 02:51:44;;;;;;;;;;;;;;;;;;4980549;28;19929;-72
2022/01/25 02:54:11;;;;;;;;;;;;;;;;;;4983120;28;20343;-72
2022/01/25 02:56:38;;;;;;;;;;;;;;;;;;4990023;28;19929;-73
2022/01/25 02:59:05;;;;;;;;;;;;;;;;;;4986638;28;19926;-72
2022/01/25 03:01:32;;;;;;;;;;;;;;;;;;4983855;28;19973;-73
2022/01/25 03:03:58;;;;;;;;;;;;;;;;;;4985863;28;19925;-73
2022/01/25 03:06:25;;;;;;;;;;;;;;;;;;4985024;28;20307;-73
2022/01/25 03:08:52;;;;;;;;;;;;;;;;;;4991036;28;19933;-73
2022/01/25 03:11:20;;;;;;;;;;;;;;;;;;4987841;28;19938;-73
2022/01/25 03:13:51;;;;;;;;;;;;;;;;;;4989475;28;19929;-73
2022/01/25 03:16:22;;;;;;;;;;;;;;;;;;4989429;28;20292;-73
2022/01/25 03:18:50;;;;;;;;;;;;;;;;;;4991473;28;20442;-73
2022/01/25 03:21:35;;;;;;;;;;;;;;;;;;4987937;28;19927;-73
2022/01/25 03:24:02;;;;;;;;;;;;;;;;;;4989781;28;19949;-72
2022/01/25 03:26:29;;;;;;;;;;;;;;;;;;4990123;28;19930;-73
2022/01/25 03:28:56;;;;;;;;;;;;;;;;;;4989367;28;19952;-74
2022/01/25 03:31:23;;;;;;;;;;;;;;;;;;4992947;28;19925;-74
2022/01/25 03:33:50;;;;;;;;;;;;;;;;;;4989047;28;20307;-73
2022/01/25 03:36:17;;;;;;;;;;;;;;;;;;4982472;28;19963;-73
2022/01/25 03:38:44;;;;;;;;;;;;;;;;;;4985076;28;19937;-73
2022/01/25 03:41:11;;;;;;;;;;;;;;;;;;4986036;28;19933;-73
2022/01/25 03:43:38;;;;;;;;;;;;;;;;;;4989183;28;20303;-73
2022/01/25 03:46:10;;;;;;;;;;;;;;;;;;4986677;28;20533;-73
2022/01/25 03:51:21;;;;;;;;;;;;;;;;;;4981110;28;19968;-72
2022/01/25 03:53:48;;;;;;;;;;;;;;;;;;4991307;28;20006;-73
2022/01/25 03:56:15;;;;;;;;;;;;;;;;;;4986564;28;19933;-73
2022/01/25 03:58:42;;;;;;;;;;;;;;;;;;4984832;28;20011;-73
2022/01/25 04:01:09;;;;;;;;;;;;;;;;;;4991917;28;20005;-73
2022/01/25 04:03:42;;;;;;;;;;;;;;;;;;4987055;28;19926;-73
2022/01/25 04:06:10;;;;;;;;;;;;;;;;;;4991065;28;20020;-73
2022/01/25 04:08:37;;;;;;;;;;;;;;;;;;4985034;28;19950;-72
2022/01/25 04:11:04;;;;;;;;;;;;;;;;;;4988766;28;19925;-73
2022/01/25 04:13:31;;;;;;;;;;;;;;;;;;4989133;28;19932;-71
2022/01/25 04:16:05;;;;;;;;;;;;;;;;;;4993082;28;19926;-72
2022/01/25 04:18:36;;;;;;;;;;;;;;;;;;4987364;28;19988;-72
2022/01/25 04:21:11;;;;;;;;;;;;;;;;;;4984885;28;19926;-72
2022/01/25 04:26:23;;;;;;;;;;;;;;;;;;4990094;28;19925;-73
2022/01/25 04:28:50;;;;;;;;;;;;;;;;;;4990245;28;19932;-72
2022/01/25 04:31:19;;;;;;;;;;;;;;;;;;4986220;28;19948;-71
2022/01/25 04:34:06;;;;;;;;;;;;;;;;;;4983726;28;20410;-72
2022/01/25 04:36:56;;;;;;;;;;;;;;;;;;4988761;28;19926;-72
2022/01/25 04:50:54;;;;;;;;;;;;;;;;;;4984093;28;19916;-72
2022/01/25 04:53:32;;;;;;;;;;;;;;;;;;4983282;28;19926;-72
2022/01/25 04:56:05;;;;;;;;;;;;;;;;;;4983544;28;19953;-72
2022/01/25 04:58:40;;;;;;;;;;;;;;;;;;4990004;28;20360;-74
2022/01/25 05:01:07;;;;;;;;;;;;;;;;;;4989717;28;19943;-72
2022/01/25 05:03:51;;;;;;;;;;;;;;;;;;4986539;28;19926;-72
2022/01/25 05:06:18;;;;;;;;;;;;;;;;;;4986640;28;19976;-72
2022/01/25 05:08:49;;;;;;;;;;;;;;;;;;4989452;28;19929;-72
2022/01/25 05:11:24;;;;;;;;;;;;;;;;;;4984855;28;20343;-71
2022/01/25 05:13:55;;;;;;;;;;;;;;;;;;4987242;28;20623;-73
2022/01/25 05:16:29;;;;;;;;;;;;;;;;;;4991019;28;19937;-73
2022/01/25 05:19:04;;;;;;;;;;;;;;;;;;4983602;28;20942;-72
2022/01/25 05:24:16;;;;;;;;;;;;;;;;;;4988315;28;19921;-73
2022/01/25 05:26:43;;;;;;;;;;;;;;;;;;4989811;28;19934;-72
2022/01/25 05:29:10;;;;;;;;;;;;;;;;;;4986978;28;20406;-73
2022/01/25 05:31:37;;;;;;;;;;;;;;;;;;4991341;28;19926;-72
2022/01/25 05:34:04;;;;;;;;;;;;;;;;;;4988529;28;19940;-74
2022/01/25 05:36:31;;;;;;;;;;;;;;;;;;4977384;28;19926;-73
2022/01/25 05:39:01;;;;;;;;;;;;;;;;;;4983878;28;19930;-74
2022/01/25 05:41:31;;;;;;;;;;;;;;;;;;4986672;28;20012;-74
2022/01/25 05:44:25;;;;;;;;;;;;;;;;;;4986311;28;19938;-74
2022/01/25 05:47:08;;;;;;;;;;;;;;;;;;4986259;28;20830;-72
2022/01/25 05:49:35;;;;;;;;;;;;;;;;;;4980421;28;19933;-73
2022/01/25 05:52:02;;;;;;;;;;;;;;;;;;4982187;28;20297;-73
2022/01/25 05:54:29;;;;;;;;;;;;;;;;;;4986116;28;19977;-73
2022/01/25 05:56:56;;;;;;;;;;;;;;;;;;4986768;28;19926;-73
2022/01/25 05:59:23;;;;;;;;;;;;;;;;;;4985202;28;19940;-73
2022/01/25 06:01:50;;;;;;;;;;;;;;;;;;4977272;28;20376;-74
2022/01/25 06:04:17;;;;;;;;;;;;;;;;;;4981086;28;19934;-72
2022/01/25 06:06:44;;;;;;;;;;;;;;;;;;4984935;28;20322;-71
2022/01/25 06:09:11;;;;;;;;;;;;;;;;;;4987231;28;19936;-71
2022/01/25 06:11:37;;;;;;;;;;;;;;;;;;4984258;28;19934;-71
2022/01/25 06:14:04;;;;;;;;;;;;;;;;;;4986983;28;19926;-71
2022/01/25 06:16:31;;;;;;;;;;;;;;;;;;4982620;28;20320;-71
2022/01/25 06:18:58;;;;;;;;;;;;;;;;;;4981303;28;19934;-71
2022/01/25 06:21:25;;;;;;;;;;;;;;;;;;4985705;28;19926;-71
2022/01/25 06:23:52;;;;;;;;;;;;;;;;;;4981220;28;19930;-71
2022/01/25 06:26:19;;;;;;;;;;;;;;;;;;4987318;28;19932;-71
2022/01/25 06:28:46;;;;;;;;;;;;;;;;;;4981288;28;19930;-71
2022/01/25 06:31:15;;;;;;;;;;;;;;;;;;4982567;28;19933;-71
2022/01/25 06:33:43;;;;;;;;;;;;;;;;;;4986118;28;19959;-73
2022/01/25 06:36:10;;;;;;;;;;;;;;;;;;4979571;28;19996;-69
2022/01/25 06:38:37;;;;;;;;;;;;;;;;;;4988585;28;20013;-70
2022/01/25 06:41:04;;;;;;;;;;;;;;;;;;4982292;28;20384;-71
2022/01/25 06:43:31;;;;;;;;;;;;;;;;;;4985925;28;20186;-71
2022/01/25 06:46:01;;;;;;;;;;;;;;;;;;4986591;28;19926;-71
2022/01/25 06:48:28;;;;;;;;;;;;;;;;;;4986757;28;20008;-69
2022/01/25 06:50:55;;;;;;;;;;;;;;;;;;4985254;28;19926;-69
2022/01/25 06:53:22;;;;;;;;;;;;;;;;;;4984036;28;20298;-69
2022/01/25 06:55:49;;;;;;;;;;;;;;;;;;4980630;28;19934;-69
2022/01/25 06:58:16;;;;;;;;;;;;;;;;;;4973186;28;19937;-70
2022/01/25 07:00:43;;;;;;;;;;;;;;;;;;4972324;28;19925;-70
2022/01/25 07:03:10;;;;;;;;;;;;;;;;;;4981692;28;20009;-71
2022/01/25 07:05:37;;;;;;;;;;;;;;;;;;4984090;28;19926;-70
2022/01/25 07:08:04;;;;;;;;;;;;;;;;;;4978096;28;19930;-70
2022/01/25 07:10:31;;;;;;;;;;;;;;;;;;4989892;28;19926;-69
2022/01/25 07:12:58;;;;;;;;;;;;;;;;;;4988344;28;19929;-71
2022/01/25 07:15:25;;;;;;;;;;;;;;;;;;4988874;28;20009;-71
2022/01/25 07:17:52;;;;;;;;;;;;;;;;;;4983493;28;19925;-71
2022/01/25 07:20:19;;;;;;;;;;;;;;;;;;4983979;28;19941;-71
2022/01/25 07:22:46;;;;;;;;;;;;;;;;;;4983129;28;20427;-71
2022/01/25 07:25:13;;;;;;;;;;;;;;;;;;4982385;28;20017;-70
2022/01/25 07:27:40;;;;;;;;;;;;;;;;;;5003476;22;19925;-68
2022/01/25 07:30:07;;;;;;;;;;;;;;;;;;4982638;28;20489;-68
2022/01/25 07:32:34;;;;;;;;;;;;;;;;;;4988216;28;19980;-69
2022/01/25 07:35:01;;;;;;;;;;;;;;;;;;4988176;28;20350;-69
2022/01/25 07:37:28;;;;;;;;;;;;;;;;;;4991767;28;20276;-69
2022/01/25 07:39:56;;;;;;;;;;;;;;;;;;4994032;28;20315;-69
2022/01/25 07:42:23;;;;;;;;;;;;;;;;;;4989563;28;19933;-69
2022/01/25 07:44:50;;;;;;;;;;;;;;;;;;4989023;28;19926;-69
2022/01/25 07:47:17;;;;;;;;;;;;;;;;;;4988291;28;19926;-69
2022/01/25 07:49:44;;;;;;;;;;;;;;;;;;4987349;28;19930;-69
2022/01/25 07:52:11;;;;;;;;;;;;;;;;;;4996840;28;20347;-68
2022/01/25 07:54:37;;;;;;;;;;;;;;;;;;4990542;28;19936;-69
2022/01/25 07:57:04;;;;;;;;;;;;;;;;;;4990626;28;19930;-68
2022/01/25 07:59:31;;;;;;;;;;;;;;;;;;4992040;28;19957;-68
2022/01/25 08:01:58;;;;;;;;;;;;;;;;;;4990279;28;19925;-68
2022/01/25 08:04:25;;;;;;;;;;;;;;;;;;4989537;28;19929;-68
2022/01/25 08:06:52;;;;;;;;;;;;;;;;;;4992197;28;19932;-68
2022/01/25 08:09:20;;;;;;;;;;;;;;;;;;4983640;28;19933;-69
2022/01/25 08:11:47;;;;;;;;;;;;;;;;;;4992221;28;19930;-68
2022/01/25 08:14:16;;;;;;;;;;;;;;;;;;4985665;28;19926;-68
2022/01/25 08:16:43;;;;;;;;;;;;;;;;;;4989562;28;19929;-69
2022/01/25 08:19:10;;;;;;;;;;;;;;;;;;4987529;28;19926;-69
2022/01/25 08:21:37;;;;;;;;;;;;;;;;;;4990952;28;19925;-69
2022/01/25 08:24:04;;;;;;;;;;;;;;;;;;4991409;28;20298;-69
2022/01/25 08:26:31;;;;;;;;;;;;;;;;;;4995157;28;19926;-70
2022/01/25 08:28:58;;;;;;;;;;;;;;;;;;4985615;28;19953;-69
2022/01/25 08:31:25;;;;;;;;;;;;;;;;;;4998303;28;19934;-69
2022/01/25 08:33:53;;;;;;;;;;;;;;;;;;4992060;28;19926;-69
2022/01/25 08:36:20;;;;;;;;;;;;;;;;;;4990462;28;20303;-69
2022/01/25 08:38:47;;;;;;;;;;;;;;;;;;4993174;28;19933;-69
2022/01/25 08:41:14;;;;;;;;;;;;;;;;;;4992228;28;19945;-69
2022/01/25 08:43:41;;;;;;;;;;;;;;;;;;4993596;28;19930;-69
2022/01/25 08:46:08;;;;;;;;;;;;;;;;;;4987277;28;20291;-70
2022/01/25 08:48:35;;;;;;;;;;;;;;;;;;4992583;28;19940;-70
2022/01/25 08:51:02;;;;;;;;;;;;;;;;;;4993650;28;19926;-69
2022/01/25 08:53:31;;;;;;;;;;;;;;;;;;4987913;28;19930;-70
2022/01/25 08:55:57;;;;;;;;;;;;;;;;;;4992458;28;19950;-69
2022/01/25 08:58:24;;;;;;;;;;;;;;;;;;4989087;28;19926;-69
2022/01/25 09:00:51;;;;;;;;;;;;;;;;;;4991986;28;19925;-70
2022/01/25 09:03:18;;;;;;;;;;;;;;;;;;4992488;28;19945;-70
2022/01/25 09:05:45;;;;;;;;;;;;;;;;;;4987826;28;19934;-70
2022/01/25 09:08:16;;;;;;;;;;;;;;;;;;4984836;28;20306;-68
2022/01/25 09:10:43;;;;;;;;;;;;;;;;;;4987921;28;19925;-69
2022/01/25 09:13:10;;;;;;;;;;;;;;;;;;4995267;28;20346;-70
2022/01/25 09:18:18;;;;;;;;;;;;;;;;;;4972200;28;19922;-70
2022/01/25 09:20:46;;;;;;;;;;;;;;;;;;4993256;28;19933;-70
2022/01/25 09:23:15;;;;;;;;;;;;;;;;;;4998254;28;19926;-70
2022/01/25 09:25:42;;;;;;;;;;;;;;;;;;4982884;28;19977;-70
2022/01/25 09:28:09;;;;;;;;;;;;;;;;;;4991149;28;19930;-69
2022/01/25 09:30:36;;;;;;;;;;;;;;;;;;4987032;28;19932;-70
2022/01/25 09:33:03;;;;;;;;;;;;;;;;;;4987176;28;19941;-70
2022/01/25 09:35:30;;;;;;;;;;;;;;;;;;4989346;28;20417;-70
2022/01/25 09:37:57;;;;;;;;;;;;;;;;;;4989590;28;19930;-69
2022/01/25 09:40:24;;;;;;;;;;;;;;;;;;4994124;28;19926;-69
2022/01/25 09:42:54;;;;;;;;;;;;;;;;;;4986757;28;19926;-67
2022/01/25 09:45:21;;;;;;;;;;;;;;;;;;4989202;28;20364;-70
2022/01/25 09:47:48;;;;;;;;;;;;;;;;;;4988031;28;19929;-69
2022/01/25 09:50:15;;;;;;;;;;;;;;;;;;4991820;28;20449;-71
2022/01/25 09:52:42;;;;;;;;;;;;;;;;;;4971577;28;19933;-69
2022/01/25 09:55:09;;;;;;;;;;;;;;;;;;4990644;28;20458;-68
2022/01/25 09:57:36;;;;;;;;;;;;;;;;;;4992348;28;19965;-69
2022/01/25 10:00:03;;;;;;;;;;;;;;;;;;4987579;28;20016;-70
2022/01/25 10:02:30;;;;;;;;;;;;;;;;;;4986857;28;19926;-70
2022/01/25 10:04:57;;;;;;;;;;;;;;;;;;4972928;28;20447;-69
2022/01/25 10:07:24;;;;;;;;;;;;;;;;;;4990375;28;19925;-68
2022/01/25 10:09:51;;;;;;;;;;;;;;;;;;4982328;28;20090;-69
2022/01/25 10:12:18;;;;;;;;;;;;;;;;;;4986065;28;20373;-69
2022/01/25 10:14:45;;;;;;;;;;;;;;;;;;4988547;28;19926;-68
2022/01/25 10:17:12;;;;;;;;;;;;;;;;;;4988605;28;19925;-69
2022/01/25 10:19:40;;;;;;;;;;;;;;;;;;4993976;28;19925;-70
2022/01/25 10:22:07;;;;;;;;;;;;;;;;;;4988780;28;19929;-69
2022/01/25 10:24:34;;;;;;;;;;;;;;;;;;4992793;28;20405;-69
2022/01/25 10:27:01;;;;;;;;;;;;;;;;;;4995097;28;20010;-68
2022/01/25 10:29:29;;;;;;;;;;;;;;;;;;4988571;28;20020;-69
2022/01/25 10:31:57;;;;;;;;;;;;;;;;;;4993864;28;20376;-69
2022/01/25 10:34:24;;;;;;;;;;;;;;;;;;4981929;28;19930;-69
2022/01/25 10:36:53;;;;;;;;;;;;;;;;;;4988989;28;20020;-68
2022/01/25 10:39:20;;;;;;;;;;;;;;;;;;4987126;28;20358;-69
2022/01/25 10:41:47;;;;;;;;;;;;;;;;;;4994595;28;20328;-68
2022/01/25 10:44:14;;;;;;;;;;;;;;;;;;4990135;28;20323;-69
2022/01/25 10:46:41;;;;;;;;;;;;;;;;;;4990405;28;19926;-68
2022/01/25 10:49:08;;;;;;;;;;;;;;;;;;4986797;28;19934;-68
2022/01/25 10:51:35;;;;;;;;;;;;;;;;;;4989297;28;19940;-68
2022/01/25 10:54:02;;;;;;;;;;;;;;;;;;4991085;28;19932;-69
2022/01/25 10:56:29;;;;;;;;;;;;;;;;;;4987649;28;19940;-70
2022/01/25 10:58:56;;;;;;;;;;;;;;;;;;4984828;28;19926;-69
2022/01/25 11:01:23;;;;;;;;;;;;;;;;;;4990264;28;20330;-70
2022/01/25 11:03:50;;;;;;;;;;;;;;;;;;4990019;28;19926;-70
2022/01/25 11:06:17;;;;;;;;;;;;;;;;;;4985755;28;20284;-70
2022/01/25 11:08:44;;;;;;;;;;;;;;;;;;4987661;28;19940;-70
2022/01/25 11:11:12;;;;;;;;;;;;;;;;;;4983658;28;19932;-70
2022/01/25 11:13:42;;;;;;;;;;;;;;;;;;4989495;28;19925;-70
2022/01/25 11:16:09;;;;;;;;;;;;;;;;;;4986200;28;19930;-70
2022/01/25 11:18:36;;;;;;;;;;;;;;;;;;4981384;28;19926;-70
2022/01/25 11:21:03;;;;;;;;;;;;;;;;;;4987234;28;19938;-70
2022/01/25 11:23:30;;;;;;;;;;;;;;;;;;4986117;28;20020;-69
2022/01/25 11:25:57;;;;;;;;;;;;;;;;;;4984832;28;19929;-68
2022/01/25 11:28:24;;;;;;;;;;;;;;;;;;4984672;28;19926;-69
2022/01/25 11:30:51;;;;;;;;;;;;;;;;;;4988703;28;19933;-69
2022/01/25 11:33:18;;;;;;;;;;;;;;;;;;4992324;28;19936;-69
2022/01/25 11:35:45;;;;;;;;;;;;;;;;;;4987713;28;20367;-69
2022/01/25 11:38:12;;;;;;;;;;;;;;;;;;4987737;28;20064;-69
2022/01/25 11:40:40;;;;;;;;;;;;;;;;;;4984957;28;19926;-70
2022/01/25 11:43:07;;;;;;;;;;;;;;;;;;4987414;28;20299;-69
2022/01/25 11:45:34;;;;;;;;;;;;;;;;;;4991849;28;19933;-69
2022/01/25 11:48:01;;;;;;;;;;;;;;;;;;4991225;28;20298;-69
2022/01/25 11:50:28;;;;;;;;;;;;;;;;;;4991317;28;19936;-71
2022/01/25 11:52:55;;;;;;;;;;;;;;;;;;4993298;28;20016;-69
2022/01/25 11:55:35;;;;;;;;;;;;;;;;;;;;;
2022/01/25 11:58:03;;;;;;;;;;;;;;;;;;4989799;28;19925;-68
2022/01/25 12:00:30;;;;;;;;;;;;;;;;;;4987067;28;20018;-69
2022/01/25 12:03:01;;;;;;;;;;;;;;;;;;4994127;28;19933;-70
2022/01/25 12:05:28;;;;;;;;;;;;;;;;;;4991157;28;20432;-69
2022/01/25 12:07:55;;;;;;;;;;;;;;;;;;4993594;28;19948;-70
2022/01/25 12:10:22;;;;;;;;;;;;;;;;;;4991902;28;19936;-68
2022/01/25 12:12:49;;;;;;;;;;;;;;;;;;4985220;28;19933;-68
2022/01/25 12:15:19;;;;;;;;;;;;;;;;;;4994813;28;19938;-69
2022/01/25 12:17:47;;;;;;;;;;;;;;;;;;4990822;28;19926;-69
2022/01/25 12:20:14;;;;;;;;;;;;;;;;;;4996213;28;19933;-69
2022/01/25 12:22:46;;;;;;;;;;;;;;;;;;4987351;28;19934;-71
2022/01/25 12:25:17;;;;;;;;;;;;;;;;;;4991456;28;20338;-72
2022/01/25 12:27:47;;;;;;;;;;;;;;;;;;4984212;28;20008;-70
2022/01/25 12:30:14;;;;;;;;;;;;;;;;;;4985189;28;19933;-70
2022/01/25 12:32:41;;;;;;;;;;;;;;;;;;4987712;28;20008;-69
2022/01/25 12:35:08;;;;;;;;;;;;;;;;;;4995382;28;19929;-70
2022/01/25 12:37:35;;;;;;;;;;;;;;;;;;4995408;28;19929;-68
2022/01/25 12:40:02;;;;;;;;;;;;;;;;;;4989008;28;20402;-69
2022/01/25 12:42:29;;;;;;;;;;;;;;;;;;4988770;28;19936;-67
2022/01/25 12:44:56;;;;;;;;;;;;;;;;;;4994983;28;19932;-69
2022/01/25 12:47:23;;;;;;;;;;;;;;;;;;4993314;28;19969;-69
2022/01/25 12:49:50;;;;;;;;;;;;;;;;;;4983703;28;19925;-70
2022/01/25 12:52:17;;;;;;;;;;;;;;;;;;4981160;28;19926;-69
2022/01/25 12:54:44;;;;;;;;;;;;;;;;;;4983095;28;19951;-69
2022/01/25 12:57:11;;;;;;;;;;;;;;;;;;4984195;28;19926;-68
2022/01/25 12:59:38;;;;;;;;;;;;;;;;;;4987433;28;20048;-70
2022/01/25 13:02:05;;;;;;;;;;;;;;;;;;4984497;28;19926;-69
2022/01/25 13:04:32;;;;;;;;;;;;;;;;;;4988120;28;19969;-69
2022/01/25 13:06:59;;;;;;;;;;;;;;;;;;4985616;28;20352;-68
2022/01/25 13:09:29;;;;;;;;;;;;;;;;;;4987652;28;19930;-69
2022/01/25 13:12:12;;;;;;;;;;;;;;;;;;4985686;28;20287;-69
2022/01/25 13:14:49;;;;;;;;;;;;;;;;;;4980262;28;20021;-69
2022/01/25 13:17:17;;;;;;;;;;;;;;;;;;4979166;28;19929;-68
2022/01/25 13:19:47;;;;;;;;;;;;;;;;;;4985434;28;19925;-68
2022/01/25 13:22:15;;;;;;;;;;;;;;;;;;4985558;28;20342;-68
2022/01/25 13:24:47;;;;;;;;;;;;;;;;;;4979879;28;20057;-67
2022/01/25 13:27:14;;;;;;;;;;;;;;;;;;5002057;22;19933;-75
2022/01/25 13:32:26;;;;;;;;;;;;;;;;;;5000030;28;19979;-73
2022/01/25 13:34:53;;;;;;;;;;;;;;;;;;5002809;28;19929;-73
2022/01/25 13:37:20;;;;;;;;;;;;;;;;;;5002468;28;20185;-71
2022/01/25 13:39:47;;;;;;;;;;;;;;;;;;4999573;28;19933;-73
2022/01/25 13:42:20;;;;;;;;;;;;;;;;;;5005759;28;20283;-74
2022/01/25 13:47:32;;;;;;;;;;;;;;;;;;5003499;28;19928;-71
2022/01/25 13:49:59;;;;;;;;;;;;;;;;;;5004166;28;19926;-69
2022/01/25 13:52:26;;;;;;;;;;;;;;;;;;5002369;28;20311;-70
2022/01/25 13:54:53;;;;;;;;;;;;;;;;;;5007678;28;19926;-73
2022/01/25 13:57:19;;;;;;;;;;;;;;;;;;5002943;28;19926;-73
2022/01/25 13:59:47;;;;;;;;;;;;;;;;;;5003174;28;19933;-72
2022/01/25 14:02:14;;;;;;;;;;;;;;;;;;5000433;28;19925;-72
2022/01/25 14:04:41;;;;;;;;;;;;;;;;;;5006623;28;20379;-71
2022/01/25 14:07:10;;;;;;;;;;;;;;;;;;5003634;28;19925;-71
2022/01/25 14:09:40;;;;;;;;;;;;;;;;;;5005475;28;20036;-72
2022/01/25 14:23:22;;;;;;;;;;;;;;;;;;5001891;28;20033;-72
2022/01/25 14:25:49;;;;;;;;;;;;;;;;;;5000453;28;19929;-73
2022/01/25 14:28:17;;;;;;;;;;;;;;;;;;5002591;28;19926;-73
2022/01/25 14:30:44;;;;;;;;;;;;;;;;;;5000645;28;19925;-74
2022/01/25 14:33:12;;;;;;;;;;;;;;;;;;5004949;28;20411;-74
2022/01/25 14:35:39;;;;;;;;;;;;;;;;;;5004991;28;20350;-73
2022/01/25 14:38:06;;;;;;;;;;;;;;;;;;5006725;28;19933;-72
2022/01/25 14:40:33;;;;;;;;;;;;;;;;;;4999682;28;19925;-73
2022/01/25 14:43:00;;;;;;;;;;;;;;;;;;5003942;28;20323;-72
2022/01/25 14:45:27;;;;;;;;;;;;;;;;;;5002772;28;19930;-71
2022/01/25 14:47:54;;;;;;;;;;;;;;;;;;5002796;28;20662;-71
2022/01/25 14:50:21;;;;;;;;;;;;;;;;;;4994404;28;19925;-73
2022/01/25 14:52:48;;;;;;;;;;;;;;;;;;5001666;28;20385;-73
2022/01/25 14:55:15;;;;;;;;;;;;;;;;;;5003482;28;20028;-72
2022/01/25 14:58:00;;;;;;;;;;;;;;;;;;5003792;28;20384;-73
2022/01/25 15:00:27;;;;;;;;;;;;;;;;;;4998754;28;19969;-74
2022/01/25 15:02:54;;;;;;;;;;;;;;;;;;5004994;28;19925;-71
2022/01/25 15:05:21;;;;;;;;;;;;;;;;;;5006430;28;19925;-72
2022/01/25 15:07:48;;;;;;;;;;;;;;;;;;5006590;28;19984;-72
2022/01/25 15:10:19;;;;;;;;;;;;;;;;;;5005126;28;19925;-73
2022/01/25 15:12:49;;;;;;;;;;;;;;;;;;5004364;28;19937;-71
2022/01/25 15:15:19;;;;;;;;;;;;;;;;;;5002217;28;19934;-70
2022/01/25 15:17:46;;;;;;;;;;;;;;;;;;5006761;28;19930;-70
2022/01/25 15:20:12;;;;;;;;;;;;;;;;;;5007453;28;20012;-70
2022/01/25 15:22:41;;;;;;;;;;;;;;;;;;5006411;28;19948;-72
2022/01/25 15:25:08;;;;;;;;;;;;;;;;;;5002667;28;19955;-72
2022/01/25 15:27:35;;;;;;;;;;;;;;;;;;5004806;28;19932;-72
2022/01/25 15:30:02;;;;;;;;;;;;;;;;;;5003983;28;19938;-72
2022/01/25 15:32:29;;;;;;;;;;;;;;;;;;5004154;28;19925;-72
2022/01/25 15:34:56;;;;;;;;;;;;;;;;;;5006292;28;19926;-74
2022/01/25 15:37:23;;;;;;;;;;;;;;;;;;5004090;28;20175;-72
2022/01/25 15:39:50;;;;;;;;;;;;;;;;;;4994643;28;19933;-73
2022/01/25 15:42:19;;;;;;;;;;;;;;;;;;5002701;28;20056;-70
2022/01/25 15:44:47;;;;;;;;;;;;;;;;;;5006991;28;19926;-74
2022/01/25 15:47:14;;;;;;;;;;;;;;;;;;5004072;28;19933;-72
2022/01/25 15:49:41;;;;;;;;;;;;;;;;;;5001830;28;19933;-70
2022/01/25 15:52:08;;;;;;;;;;;;;;;;;;5006110;28;20017;-70
2022/01/25 15:54:35;;;;;;;;;;;;;;;;;;5004206;28;19936;-74
2022/01/25 15:57:02;;;;;;;;;;;;;;;;;;5007058;28;19930;-73
2022/01/25 15:59:29;;;;;;;;;;;;;;;;;;5005305;28;19926;-72
2022/01/25 16:01:56;;;;;;;;;;;;;;;;;;5006961;28;20214;-70
2022/01/25 16:04:23;;;;;;;;;;;;;;;;;;5005436;28;20426;-72
2022/01/25 16:06:50;;;;;;;;;;;;;;;;;;5006923;28;19931;-72
2022/01/25 16:09:17;;;;;;;;;;;;;;;;;;5010474;28;19926;-72
2022/01/25 16:11:43;;;;;;;;;;;;;;;;;;5005003;28;19925;-71
2022/01/25 16:14:10;;;;;;;;;;;;;;;;;;5007291;28;19925;-74
2022/01/25 16:16:38;;;;;;;;;;;;;;;;;;5004073;28;19933;-73
2022/01/25 16:19:05;;;;;;;;;;;;;;;;;;5003969;28;20280;-73
2022/01/25 16:21:32;;;;;;;;;;;;;;;;;;5003475;28;20016;-72
2022/01/25 16:23:59;;;;;;;;;;;;;;;;;;5004274;28;19933;-72
2022/01/25 16:26:28;;;;;;;;;;;;;;;;;;5002238;28;19936;-74
2022/01/25 16:28:55;;;;;;;;;;;;;;;;;;5005168;28;19966;-74
2022/01/25 16:31:28;;;;;;;;;;;;;;;;;;5004464;28;19947;-74
2022/01/25 16:33:55;;;;;;;;;;;;;;;;;;5003918;28;20325;-73
2022/01/25 16:36:22;;;;;;;;;;;;;;;;;;5003527;28;19929;-73
2022/01/25 16:38:49;;;;;;;;;;;;;;;;;;5004667;28;19943;-73
2022/01/25 16:41:16;;;;;;;;;;;;;;;;;;5005745;28;19932;-71
2022/01/25 16:43:42;;;;;;;;;;;;;;;;;;5006227;28;20020;-74
2022/01/25 16:46:09;;;;;;;;;;;;;;;;;;5002403;28;19933;-74
2022/01/25 16:48:36;;;;;;;;;;;;;;;;;;5006938;28;20001;-73
2022/01/25 16:51:03;;;;;;;;;;;;;;;;;;4997703;28;19939;-73
2022/01/25 16:53:30;;;;;;;;;;;;;;;;;;5002440;28;20059;-71
2022/01/25 16:55:57;;;;;;;;;;;;;;;;;;5004456;28;19929;-71
2022/01/25 16:58:24;;;;;;;;;;;;;;;;;;5002989;28;20081;-71
2022/01/25 17:00:51;;;;;;;;;;;;;;;;;;5004029;28;19929;-72
2022/01/25 17:03:18;;;;;;;;;;;;;;;;;;5004624;28;19933;-72
2022/01/25 17:05:45;;;;;;;;;;;;;;;;;;5000878;28;20338;-71
2022/01/25 17:08:12;;;;;;;;;;;;;;;;;;5003211;28;19935;-70
2022/01/25 17:10:39;;;;;;;;;;;;;;;;;;5000251;28;19925;-70
2022/01/25 17:13:06;;;;;;;;;;;;;;;;;;5003832;28;19934;-71
2022/01/25 17:15:33;;;;;;;;;;;;;;;;;;5003244;28;19925;-73
2022/01/25 17:18:00;;;;;;;;;;;;;;;;;;5004015;28;19926;-72
2022/01/25 17:20:27;;;;;;;;;;;;;;;;;;5001054;28;19926;-71
2022/01/25 17:22:54;;;;;;;;;;;;;;;;;;5003978;28;21145;-72
2022/01/25 17:25:21;;;;;;;;;;;;;;;;;;5005136;28;19925;-72
2022/01/25 17:27:48;;;;;;;;;;;;;;;;;;5007383;28;19944;-70
2022/01/25 17:30:15;;;;;;;;;;;;;;;;;;5003755;28;19980;-70
2022/01/25 17:32:42;;;;;;;;;;;;;;;;;;5003926;28;20008;-71
2022/01/25 17:35:09;;;;;;;;;;;;;;;;;;5007367;28;20347;-71
2022/01/25 17:37:35;;;;;;;;;;;;;;;;;;5004477;28;19942;-73
2022/01/25 17:40:03;;;;;;;;;;;;;;;;;;5006101;28;19926;-73
2022/01/25 17:42:30;;;;;;;;;;;;;;;;;;5003627;28;19933;-73
2022/01/25 17:44:56;;;;;;;;;;;;;;;;;;5001010;28;20264;-73
2022/01/25 17:47:23;;;;;;;;;;;;;;;;;;4999009;28;20008;-73
2022/01/25 17:49:50;;;;;;;;;;;;;;;;;;5001498;28;19932;-72
2022/01/25 17:52:17;;;;;;;;;;;;;;;;;;5005377;28;19926;-72
2022/01/25 17:54:44;;;;;;;;;;;;;;;;;;5005337;28;19972;-73
2022/01/25 17:57:11;;;;;;;;;;;;;;;;;;5006287;28;20299;-73
2022/01/25 17:59:38;;;;;;;;;;;;;;;;;;5002781;28;20746;-74
2022/01/25 18:02:05;;;;;;;;;;;;;;;;;;5004557;28;20362;-74
2022/01/25 18:04:32;;;;;;;;;;;;;;;;;;5000258;28;19933;-74
2022/01/25 18:06:59;;;;;;;;;;;;;;;;;;5005087;28;19926;-73
2022/01/25 18:09:26;;;;;;;;;;;;;;;;;;5006120;28;19925;-74
2022/01/25 18:11:53;;;;;;;;;;;;;;;;;;5004194;28;20417;-76
2022/01/25 18:14:20;;;;;;;;;;;;;;;;;;4999797;28;19944;-74
2022/01/25 18:16:47;;;;;;;;;;;;;;;;;;5004216;28;20011;-73
2022/01/25 18:19:14;;;;;;;;;;;;;;;;;;5002485;28;19937;-73
2022/01/25 18:21:45;;;;;;;;;;;;;;;;;;5005689;28;20291;-71
2022/01/25 18:24:16;;;;;;;;;;;;;;;;;;5003242;28;19968;-71